createdAt,value
2018-01-12T00:01:23.292Z,101635.38
2018-01-12T00:03:51.640Z,101636.94
2018-01-12T00:06:20.088Z,101637.28
2018-01-12T00:08:48.484Z,101635.94
2018-01-12T00:11:16.827Z,101627.50
2018-01-12T00:13:45.215Z,101632.44
2018-01-12T00:16:13.603Z,101643.91
2018-01-12T00:18:41.992Z,101637.45
2018-01-12T00:21:10.466Z,101650.58
2018-01-12T00:23:38.949Z,101645.77
2018-01-12T00:26:07.315Z,101654.84
2018-01-12T00:28:35.700Z,101659.38
2018-01-12T00:31:04.056Z,101661.52
2018-01-12T00:33:32.406Z,101661.41
2018-01-12T00:36:01.178Z,101663.13
2018-01-12T00:38:30.300Z,101659.52
2018-01-12T00:40:58.643Z,101665.48
2018-01-12T00:43:27.020Z,101668.09
2018-01-12T00:45:55.388Z,101659.61
2018-01-12T00:48:23.764Z,101661.16
2018-01-12T00:50:52.416Z,101666.64
2018-01-12T00:53:20.788Z,101669.30
2018-01-12T00:55:49.156Z,101672.91
2018-01-12T00:58:17.510Z,101675.52
2018-01-12T01:00:46.268Z,101673.86
2018-01-12T01:03:14.851Z,101686.63
2018-01-12T01:05:43.224Z,101686.73
2018-01-12T01:08:11.588Z,101691.12
2018-01-12T01:10:39.954Z,101697.58
2018-01-12T01:13:08.308Z,101701.15
2018-01-12T01:15:37.763Z,101699.83
2018-01-12T01:18:06.435Z,101694.48
2018-01-12T01:20:34.837Z,101698.63
2018-01-12T01:23:03.388Z,101705.40
2018-01-12T01:25:31.749Z,101701.69
2018-01-12T01:28:00.164Z,101699.48
2018-01-12T01:30:28.528Z,101702.89
2018-01-12T01:32:56.893Z,101703.15
2018-01-12T01:35:25.262Z,101713.09
2018-01-12T01:37:53.804Z,101716.72
2018-01-12T01:40:22.175Z,101720.70
2018-01-12T01:42:50.534Z,101724.98
2018-01-12T01:45:19.028Z,101723.20
2018-01-12T01:47:47.387Z,101727.00
2018-01-12T01:50:15.783Z,101722.31
2018-01-12T01:52:44.152Z,101712.52
2018-01-12T01:55:12.499Z,101717.70
2018-01-12T01:57:41.021Z,101723.81
2018-01-12T02:00:09.372Z,101724.87
2018-01-12T02:02:37.728Z,101728.13
2018-01-12T02:05:06.539Z,101723.64
2018-01-12T02:07:34.900Z,101730.50
2018-01-12T02:10:03.642Z,101726.33
2018-01-12T02:12:32.013Z,101737.02
2018-01-12T02:15:00.393Z,101730.03
2018-01-12T02:17:28.768Z,101736.36
2018-01-12T02:19:57.118Z,101734.97
2018-01-12T02:22:25.536Z,101743.38
2018-01-12T02:24:54.004Z,101741.13
2018-01-12T02:27:22.388Z,101749.55
2018-01-12T02:29:50.768Z,101745.48
2018-01-12T02:32:19.135Z,101745.86
2018-01-12T02:34:47.489Z,101752.06
2018-01-12T02:37:15.906Z,101755.05
2018-01-12T02:39:44.280Z,101760.76
2018-01-12T02:42:12.780Z,101762.91
2018-01-12T02:44:41.926Z,101764.77
2018-01-12T02:47:10.331Z,101769.58
2018-01-12T02:49:38.708Z,101764.09
2018-01-12T02:52:07.061Z,101769.88
2018-01-12T02:54:35.432Z,101770.58
2018-01-12T02:57:03.866Z,101775.05
2018-01-12T02:59:32.218Z,101780.16
2018-01-12T03:02:00.573Z,101784.92
2018-01-12T03:04:28.991Z,101786.14
2018-01-12T03:06:57.368Z,101797.90
2018-01-12T03:09:25.712Z,101797.86
2018-01-12T03:11:54.088Z,101802.61
2018-01-12T03:14:22.508Z,101795.34
2018-01-12T03:16:50.880Z,101800.91
2018-01-12T03:19:19.307Z,101797.69
2018-01-12T03:21:48.040Z,101811.43
2018-01-12T03:24:16.401Z,101799.66
2018-01-12T03:26:44.769Z,101800.25
2018-01-12T03:29:13.160Z,101804.31
2018-01-12T03:31:41.568Z,101813.24
2018-01-12T03:34:09.936Z,101810.36
2018-01-12T03:36:38.289Z,101807.81
2018-01-12T03:39:06.696Z,101810.16
2018-01-12T03:41:35.051Z,101812.73
2018-01-12T03:44:03.440Z,101814.80
2018-01-12T03:46:31.793Z,101813.84
2018-01-12T03:49:00.627Z,101822.44
2018-01-12T03:51:28.988Z,101826.23
2018-01-12T03:53:57.376Z,101825.06
2018-01-12T03:56:25.747Z,101827.30
2018-01-12T03:58:54.144Z,101827.56
2018-01-12T04:01:22.516Z,101833.26
2018-01-12T04:03:50.892Z,101831.10
2018-01-12T04:06:19.283Z,101836.49
2018-01-12T04:08:47.759Z,101836.19
2018-01-12T04:11:16.112Z,101840.22
2018-01-12T04:13:44.475Z,101841.19
2018-01-12T04:16:12.840Z,101830.25
2018-01-12T04:18:41.196Z,101840.45
2018-01-12T04:21:09.593Z,101849.34
2018-01-12T04:23:38.444Z,101854.98
2018-01-12T04:26:06.800Z,101850.23
2018-01-12T04:28:35.195Z,101855.20
2018-01-12T04:31:03.600Z,101861.15
2018-01-12T04:33:31.979Z,101849.80
2018-01-12T04:36:00.435Z,101857.63
2018-01-12T04:38:28.812Z,101851.78
2018-01-12T04:40:57.205Z,101853.28
2018-01-12T04:43:25.555Z,101852.50
2018-01-12T04:45:53.962Z,101852.05
2018-01-12T04:48:22.320Z,101875.92
2018-01-12T04:50:50.697Z,101856.63
2018-01-12T04:53:19.056Z,101857.15
2018-01-12T04:55:47.527Z,101854.06
2018-01-12T04:58:16.364Z,101862.59
2018-01-12T05:00:45.606Z,101854.03
2018-01-12T05:03:14.031Z,101866.09
2018-01-12T05:05:42.428Z,101861.07
2018-01-12T05:08:10.793Z,101866.44
2018-01-12T05:10:39.168Z,101871.66
2018-01-12T05:13:07.524Z,101869.49
2018-01-12T05:15:35.950Z,101877.73
2018-01-12T05:18:04.300Z,101880.67
2018-01-12T05:20:32.680Z,101886.86
2018-01-12T05:23:01.086Z,101883.76
2018-01-12T05:25:29.546Z,101885.94
2018-01-12T05:27:57.892Z,101879.02
2018-01-12T05:30:26.259Z,101883.72
2018-01-12T05:32:55.000Z,101887.05
2018-01-12T05:35:23.369Z,101883.58
2018-01-12T05:37:51.748Z,101882.33
2018-01-12T05:40:20.205Z,101889.05
2018-01-12T05:42:48.560Z,101894.72
2018-01-12T05:45:17.336Z,101899.82
2018-01-12T05:47:46.202Z,101896.55
2018-01-12T05:50:14.661Z,101905.89
2018-01-12T05:52:43.050Z,101900.55
2018-01-12T05:55:11.657Z,101903.06
2018-01-12T05:57:40.095Z,101905.13
2018-01-12T06:00:08.488Z,101916.45
2018-01-12T06:02:54.676Z,101922.06
2018-01-12T06:05:41.016Z,101911.63
2018-01-12T06:08:09.363Z,101913.77
2018-01-12T06:10:37.727Z,101922.41
2018-01-12T06:13:06.137Z,101921.27
2018-01-12T06:15:34.495Z,101929.27
2018-01-12T06:18:02.858Z,101928.45
2018-01-12T06:20:31.255Z,101932.83
2018-01-12T06:22:59.621Z,101936.45
2018-01-12T06:25:27.985Z,101936.31
2018-01-12T06:27:56.354Z,101945.42
2018-01-12T06:30:24.780Z,101947.67
2018-01-12T06:32:53.148Z,101945.22
2018-01-12T06:35:21.510Z,101950.80
2018-01-12T06:37:49.899Z,101954.67
2018-01-12T06:40:18.268Z,101958.79
2018-01-12T06:42:46.661Z,101964.80
2018-01-12T06:45:15.024Z,101961.19
2018-01-12T06:47:43.376Z,101967.66
2018-01-12T06:50:12.216Z,101971.30
2018-01-12T06:52:40.580Z,101987.81
2018-01-12T06:55:08.931Z,101983.42
2018-01-12T06:57:37.911Z,101984.73
2018-01-12T07:00:06.714Z,101978.52
2018-01-12T07:02:35.168Z,102001.58
2018-01-12T07:05:03.612Z,101981.41
2018-01-12T07:07:32.022Z,101985.06
2018-01-12T07:10:00.380Z,101993.38
2018-01-12T07:12:28.735Z,102007.62
2018-01-12T07:14:57.135Z,102005.77
2018-01-12T07:17:25.714Z,102010.70
2018-01-12T07:19:54.067Z,102013.23
2018-01-12T07:22:27.787Z,102022.05
2018-01-12T07:24:56.159Z,102023.23
2018-01-12T07:27:24.573Z,102022.73
2018-01-12T07:29:52.892Z,102031.97
2018-01-12T07:32:21.419Z,102021.70
2018-01-12T07:34:49.783Z,102030.12
2018-01-12T07:37:18.144Z,102021.39
2018-01-12T07:39:46.491Z,102027.64
2018-01-12T07:42:15.329Z,102038.24
2018-01-12T07:44:43.676Z,102035.80
2018-01-12T07:47:12.096Z,102042.12
2018-01-12T07:49:40.455Z,102044.35
2018-01-12T07:52:08.849Z,102043.17
2018-01-12T07:54:37.245Z,102044.66
2018-01-12T07:57:05.735Z,102044.42
2018-01-12T07:59:34.089Z,102048.13
2018-01-12T08:02:07.961Z,102052.91
2018-01-12T08:04:36.323Z,102050.29
2018-01-12T08:07:05.435Z,102050.38
2018-01-12T08:09:33.781Z,102048.52
2018-01-12T08:12:02.136Z,102042.16
2018-01-12T08:14:30.493Z,102058.52
2018-01-12T08:16:58.860Z,102066.42
2018-01-12T08:19:27.214Z,102069.28
2018-01-12T08:21:56.052Z,102055.54
2018-01-12T08:24:24.424Z,102071.33
2018-01-12T08:26:52.789Z,102062.36
2018-01-12T08:29:21.196Z,102075.66
2018-01-12T08:31:49.660Z,102083.92
2018-01-12T08:34:18.038Z,102076.59
2018-01-12T08:36:46.396Z,102079.35
2018-01-12T08:39:14.803Z,102087.37
2018-01-12T08:41:43.174Z,102081.94
2018-01-12T08:44:11.514Z,102086.23
2018-01-12T08:46:40.299Z,102096.50
2018-01-12T08:49:09.890Z,102095.38
2018-01-12T08:51:38.655Z,102086.79
2018-01-12T08:54:07.051Z,102095.15
2018-01-12T08:56:35.400Z,102099.08
2018-01-12T08:59:03.780Z,102090.53
2018-01-12T09:01:32.264Z,102104.02
2018-01-12T09:04:00.615Z,102095.14
2018-01-12T09:06:28.967Z,102105.59
2018-01-12T09:08:58.413Z,102109.41
2018-01-12T09:11:26.771Z,102109.41
2018-01-12T09:13:57.254Z,102114.47
2018-01-12T09:16:28.735Z,102119.77
2018-01-12T09:19:29.269Z,102113.35
2018-01-12T09:21:58.101Z,102120.71
2018-01-12T09:24:26.438Z,102123.59
2018-01-12T09:26:54.857Z,102130.47
2018-01-12T09:29:23.236Z,102126.23
2018-01-12T09:31:52.442Z,102133.59
2018-01-12T09:34:38.519Z,102127.46
2018-01-12T09:37:06.872Z,102139.09
2018-01-12T09:39:43.266Z,102131.44
2018-01-12T09:42:11.623Z,102136.42
2018-01-12T09:44:40.031Z,102153.20
2018-01-12T09:47:21.898Z,102134.48
2018-01-12T09:49:50.277Z,102140.81
2018-01-12T09:52:18.685Z,102150.56
2018-01-12T09:54:47.141Z,102146.94
2018-01-12T09:57:15.550Z,102141.48
2018-01-12T09:59:44.695Z,102144.70
2018-01-12T10:02:13.563Z,102149.14
2018-01-12T10:04:41.916Z,102154.28
2018-01-12T10:07:19.913Z,102156.30
2018-01-12T10:09:50.149Z,102152.13
2018-01-12T10:12:18.465Z,102155.95
2018-01-12T10:14:47.302Z,102151.84
2018-01-12T10:17:15.745Z,102154.33
2018-01-12T10:23:04.178Z,102162.32
2018-01-12T10:25:32.633Z,102155.06
2018-01-12T10:28:00.984Z,102148.53
2018-01-12T10:30:34.717Z,102147.89
2018-01-12T10:33:08.553Z,102155.37
2018-01-12T10:38:38.004Z,102156.44
2018-01-12T10:41:18.816Z,102163.05
2018-01-12T10:43:47.168Z,102162.77
2018-01-12T10:46:35.235Z,102157.55
2018-01-12T10:49:19.184Z,102172.71
2018-01-12T10:51:47.871Z,102166.91
2018-01-12T10:54:16.217Z,102178.09
2018-01-12T10:56:44.574Z,102172.44
2018-01-12T10:59:12.950Z,102177.96
2018-01-12T11:01:41.694Z,102183.37
2018-01-12T11:04:10.078Z,102196.25
2018-01-12T11:06:38.431Z,102182.87
2018-01-12T11:09:06.779Z,102193.98
2018-01-12T11:11:35.129Z,102191.68
2018-01-12T11:14:03.489Z,102194.08
2018-01-12T11:16:31.851Z,102189.81
2018-01-12T11:19:00.187Z,102195.05
2018-01-12T11:21:29.023Z,102201.05
2018-01-12T11:23:57.398Z,102184.89
2018-01-12T11:26:25.751Z,102193.37
2018-01-12T11:28:54.095Z,102196.52
2018-01-12T11:31:22.517Z,102185.63
2018-01-12T11:33:50.921Z,102184.11
2018-01-12T11:36:19.287Z,102189.61
2018-01-12T11:38:47.627Z,102184.75
2018-01-12T11:41:16.470Z,102185.27
2018-01-12T11:43:44.820Z,102183.15
2018-01-12T11:46:13.215Z,102185.25
2018-01-12T11:48:41.572Z,102185.06
2018-01-12T11:51:09.929Z,102188.18
2018-01-12T11:53:38.763Z,102190.52
2018-01-12T11:56:07.116Z,102186.19
2018-01-12T11:58:35.528Z,102198.53
2018-01-12T12:01:03.892Z,102177.53
2018-01-12T12:03:32.261Z,102187.19
2018-01-12T12:06:00.607Z,102182.59
2018-01-12T12:08:29.035Z,102188.42
2018-01-12T12:10:57.496Z,102191.91
2018-01-12T12:13:25.852Z,102188.27
2018-01-12T12:15:54.691Z,102191.73
2018-01-12T12:18:23.064Z,102187.09
2018-01-12T12:20:51.464Z,102188.98
2018-01-12T12:23:19.868Z,102190.23
2018-01-12T12:25:48.625Z,102192.72
2018-01-12T12:28:16.999Z,102191.58
2018-01-12T12:30:45.371Z,102186.08
2018-01-12T12:33:13.715Z,102194.56
2018-01-12T12:35:42.228Z,102192.35
2018-01-12T12:38:10.575Z,102192.80
2018-01-12T12:40:38.933Z,102190.53
2018-01-12T12:43:07.674Z,102191.19
2018-01-12T12:45:36.032Z,102187.38
2018-01-12T12:48:04.427Z,102198.74
2018-01-12T12:50:32.838Z,102190.64
2018-01-12T12:53:01.265Z,102191.50
2018-01-12T12:55:29.633Z,102187.62
2018-01-12T12:57:58.046Z,102183.52
2018-01-12T13:00:26.408Z,102182.41
2018-01-12T13:02:54.763Z,102193.33
2018-01-12T13:05:23.598Z,102196.00
2018-01-12T13:07:52.053Z,102182.59
2018-01-12T13:10:20.457Z,102187.75
2018-01-12T13:12:48.804Z,102183.31
2018-01-12T13:15:17.161Z,102182.81
2018-01-12T13:17:45.905Z,102184.69
2018-01-12T13:20:14.271Z,102186.52
2018-01-12T13:22:42.615Z,102192.63
2018-01-12T13:25:11.051Z,102185.63
2018-01-12T13:27:39.432Z,102196.26
2018-01-12T13:30:07.903Z,102203.06
2018-01-12T13:32:36.251Z,102207.26
2018-01-12T13:35:04.626Z,102201.03
2018-01-12T13:37:32.970Z,102208.17
2018-01-12T13:40:01.870Z,102200.49
2018-01-12T13:42:30.685Z,102203.56
2018-01-12T13:44:59.064Z,102205.99
2018-01-12T13:47:27.427Z,102213.43
2018-01-12T13:49:55.839Z,102221.09
2018-01-12T13:52:24.199Z,102218.69
2018-01-12T13:54:52.594Z,102226.03
2018-01-12T13:57:20.962Z,102227.31
2018-01-12T13:59:49.360Z,102228.28
2018-01-12T14:02:17.789Z,102230.45
2018-01-12T14:04:46.631Z,102229.48
2018-01-12T14:07:14.984Z,102231.89
2018-01-12T14:09:43.338Z,102227.34
2018-01-12T14:12:12.115Z,102233.39
2018-01-12T14:14:40.987Z,102237.52
2018-01-12T14:17:09.359Z,102237.20
2018-01-12T14:19:37.710Z,102238.98
2018-01-12T14:22:06.074Z,102234.09
2018-01-12T14:24:34.428Z,102242.20
2018-01-12T14:27:03.262Z,102238.38
2018-01-12T14:29:31.618Z,102233.20
2018-01-12T14:32:00.026Z,102249.31
2018-01-12T14:34:28.482Z,102243.22
2018-01-12T14:36:56.843Z,102243.30
2018-01-12T14:39:25.677Z,102249.80
2018-01-12T14:41:54.042Z,102243.45
2018-01-12T14:44:22.489Z,102256.13
2018-01-12T14:46:50.818Z,102257.54
2018-01-12T14:49:19.179Z,102256.49
2018-01-12T14:51:47.527Z,102262.50
2018-01-12T14:54:15.880Z,102263.59
2018-01-12T14:56:44.229Z,102267.03
2018-01-12T14:59:12.579Z,102263.48
2018-01-12T15:01:40.991Z,102263.63
2018-01-12T15:04:09.379Z,102269.71
2018-01-12T15:06:37.750Z,102272.97
2018-01-12T15:09:06.115Z,102273.73
2018-01-12T15:11:34.496Z,102290.34
2018-01-12T15:14:02.844Z,102281.75
2018-01-12T15:16:31.253Z,102269.77
2018-01-12T15:18:59.598Z,102285.53
2018-01-12T15:21:27.989Z,102280.77
2018-01-12T15:23:56.382Z,102282.88
2018-01-12T15:26:24.735Z,102287.95
2018-01-12T15:28:53.091Z,102288.44
2018-01-12T15:31:21.935Z,102282.23
2018-01-12T15:33:50.314Z,102294.13
2018-01-12T15:36:18.692Z,102294.97
2018-01-12T15:38:47.048Z,102293.66
2018-01-12T15:41:15.606Z,102298.61
2018-01-12T15:43:44.454Z,102298.47
2018-01-12T15:46:12.947Z,102299.95
2018-01-12T15:48:41.353Z,102297.16
2018-01-12T15:51:09.671Z,102294.04
2018-01-12T15:53:38.035Z,102303.89
2018-01-12T15:56:06.439Z,102300.16
2018-01-12T15:58:34.787Z,102308.91
2018-01-12T16:01:03.138Z,102304.92
2018-01-12T16:03:31.998Z,102308.80
2018-01-12T16:06:00.365Z,102314.84
2018-01-12T16:08:28.862Z,102315.34
2018-01-12T16:10:57.352Z,102311.91
2018-01-12T16:13:25.815Z,102316.12
2018-01-12T16:15:54.285Z,102318.16
2018-01-12T16:18:22.666Z,102317.22
2018-01-12T16:20:51.011Z,102317.91
2018-01-12T16:23:19.425Z,102318.31
2018-01-12T16:25:47.805Z,102322.70
2018-01-12T16:28:16.193Z,102321.06
2018-01-12T16:30:44.552Z,102320.35
2018-01-12T16:33:12.902Z,102322.77
2018-01-12T16:35:41.319Z,102316.65
2018-01-12T16:38:09.678Z,102333.20
2018-01-12T16:40:38.041Z,102331.55
2018-01-12T16:43:06.392Z,102327.33
2018-01-12T16:45:34.764Z,102337.08
2018-01-12T16:48:03.216Z,102332.30
2018-01-12T16:50:31.575Z,102342.08
2018-01-12T16:52:59.927Z,102333.52
2018-01-12T16:55:28.361Z,102332.16
2018-01-12T16:57:56.749Z,102335.36
2018-01-12T17:00:25.235Z,102335.13
2018-01-12T17:02:53.779Z,102341.41
2018-01-12T17:05:22.259Z,102346.13
2018-01-12T17:07:50.652Z,102345.55
2018-01-12T17:10:19.048Z,102353.73
2018-01-12T17:12:47.407Z,102339.18
2018-01-12T17:15:15.772Z,102339.64
2018-01-12T17:17:44.261Z,102347.73
2018-01-12T17:20:12.669Z,102355.11
2018-01-12T17:22:41.036Z,102353.32
2018-01-12T17:25:09.392Z,102350.84
2018-01-12T17:27:37.759Z,102349.42
2018-01-12T17:30:06.126Z,102345.47
2018-01-12T17:32:34.488Z,102346.50
2018-01-12T17:35:03.233Z,102350.97
2018-01-12T17:37:31.726Z,102347.66
2018-01-12T17:40:00.083Z,102358.61
2018-01-12T17:42:28.444Z,102363.38
2018-01-12T17:44:56.791Z,102356.48
2018-01-12T17:47:25.555Z,102363.28
2018-01-12T17:49:54.008Z,102376.47
2018-01-12T17:52:22.387Z,102363.97
2018-01-12T17:54:50.767Z,102360.06
2018-01-12T17:57:19.158Z,102362.04
2018-01-12T17:59:47.518Z,102360.42
2018-01-12T18:02:15.871Z,102360.16
2018-01-12T18:04:44.227Z,102365.03
2018-01-12T18:07:13.068Z,102363.78
2018-01-12T18:09:41.531Z,102363.30
2018-01-12T18:12:09.867Z,102367.31
2018-01-12T18:14:38.234Z,102372.34
2018-01-12T18:17:06.615Z,102369.75
2018-01-12T18:19:35.046Z,102369.28
2018-01-12T18:22:03.395Z,102370.89
2018-01-12T18:24:32.151Z,102372.52
2018-01-12T18:27:00.530Z,102377.53
2018-01-12T18:29:28.904Z,102378.69
2018-01-12T18:31:57.280Z,102380.95
2018-01-12T18:34:25.635Z,102380.19
2018-01-12T18:36:54.038Z,102386.70
2018-01-12T18:39:22.507Z,102379.80
2018-01-12T18:41:50.865Z,102393.91
2018-01-12T18:44:19.219Z,102394.11
2018-01-12T18:46:47.976Z,102400.08
2018-01-12T18:49:16.327Z,102397.52
2018-01-12T18:51:44.680Z,102410.48
2018-01-12T18:54:13.088Z,102406.66
2018-01-12T18:56:41.523Z,102405.37
2018-01-12T18:59:10.283Z,102405.89
2018-01-12T19:01:38.736Z,102404.28
2018-01-12T19:04:07.223Z,102405.99
2018-01-12T19:06:35.605Z,102409.13
2018-01-12T19:09:03.957Z,102407.52
2018-01-12T19:11:32.351Z,102410.47
2018-01-12T19:14:00.735Z,102414.67
2018-01-12T19:16:29.088Z,102427.63
2018-01-12T19:18:57.672Z,102427.73
2018-01-12T19:21:26.077Z,102432.10
2018-01-12T19:23:54.422Z,102433.50
2018-01-12T19:26:22.779Z,102432.53
2018-01-12T19:28:51.532Z,102434.58
2018-01-12T19:31:19.909Z,102438.83
2018-01-12T19:33:48.265Z,102438.28
2018-01-12T19:36:16.638Z,102443.25
2018-01-12T19:38:45.038Z,102451.72
2018-01-12T19:41:13.409Z,102439.72
2018-01-12T19:43:41.759Z,102444.38
2018-01-12T19:46:10.167Z,102443.52
2018-01-12T19:48:38.529Z,102447.19
2018-01-12T19:51:06.913Z,102453.33
2018-01-12T19:53:35.268Z,102444.97
2018-01-12T19:56:03.622Z,102457.62
2018-01-12T19:58:32.400Z,102459.00
2018-01-12T20:01:00.746Z,102450.87
2018-01-12T20:03:29.097Z,102451.80
2018-01-12T20:05:57.453Z,102442.65
2018-01-12T20:08:26.200Z,102448.80
2018-01-12T20:10:54.587Z,102439.95
2018-01-12T20:13:22.954Z,102439.92
2018-01-12T20:15:51.318Z,102446.98
2018-01-12T20:18:19.666Z,102449.53
2018-01-12T20:20:48.033Z,102448.13
2018-01-12T20:23:16.771Z,102445.63
2018-01-12T20:25:45.138Z,102454.00
2018-01-12T20:28:13.488Z,102455.98
2018-01-12T20:30:41.838Z,102473.08
2018-01-12T20:33:10.191Z,102453.06
2018-01-12T20:35:38.560Z,102476.20
2018-01-12T20:38:06.918Z,102463.98
2018-01-12T20:40:35.284Z,102462.33
2018-01-12T20:43:03.631Z,102471.86
2018-01-12T20:45:31.995Z,102463.22
2018-01-12T20:48:00.354Z,102466.46
2018-01-12T20:50:28.719Z,102479.97
2018-01-12T20:52:57.070Z,102476.81
2018-01-12T20:55:25.446Z,102473.98
2018-01-12T20:57:53.804Z,102482.53
2018-01-12T21:00:22.163Z,102477.54
2018-01-12T21:02:50.514Z,102484.13
2018-01-12T21:05:18.884Z,102476.25
2018-01-12T21:07:47.227Z,102484.37
2018-01-12T21:10:15.981Z,102485.38
2018-01-12T21:12:44.339Z,102483.22
2018-01-12T21:15:12.721Z,102482.02
2018-01-12T21:17:41.096Z,102484.34
2018-01-12T21:20:09.442Z,102479.60
2018-01-12T21:22:38.198Z,102487.14
2018-01-12T21:25:06.559Z,102486.53
2018-01-12T21:27:34.918Z,102481.26
2018-01-12T21:30:03.289Z,102487.77
2018-01-12T21:32:31.639Z,102494.05
2018-01-12T21:34:59.981Z,102494.78
2018-01-12T21:37:28.432Z,102499.25
2018-01-12T21:39:56.779Z,102495.11
2018-01-12T21:42:25.542Z,102493.19
2018-01-12T21:44:53.987Z,102485.63
2018-01-12T21:47:22.347Z,102491.72
2018-01-12T21:49:50.704Z,102503.63
2018-01-12T21:52:19.068Z,102500.49
2018-01-12T21:54:47.923Z,102495.57
2018-01-12T21:57:16.285Z,102506.22
2018-01-12T21:59:44.650Z,102506.73
2018-01-12T22:02:13.021Z,102514.56
2018-01-12T22:04:41.429Z,102515.55
2018-01-12T22:07:09.800Z,102512.65
2018-01-12T22:09:38.193Z,102513.56
2018-01-12T22:12:06.667Z,102514.30
2018-01-12T22:14:35.046Z,102512.16
2018-01-12T22:17:03.416Z,102518.81
2018-01-12T22:19:31.803Z,102518.61
2018-01-12T22:22:00.156Z,102500.94
2018-01-12T22:24:28.560Z,102511.62
2018-01-12T22:26:56.945Z,102507.78
2018-01-12T22:29:25.303Z,102501.88
2018-01-12T22:31:53.672Z,102502.32
2018-01-12T22:34:22.023Z,102497.84
2018-01-12T22:36:50.379Z,102499.91
2018-01-12T22:39:18.750Z,102504.19
2018-01-12T22:41:47.316Z,102504.87
2018-01-12T22:44:15.679Z,102501.83
2018-01-12T22:46:44.054Z,102505.77
2018-01-12T22:49:12.407Z,102498.02
2018-01-12T22:51:40.772Z,102504.21
2018-01-12T22:54:09.527Z,102500.41
2018-01-12T22:56:38.003Z,102499.50
2018-01-12T22:59:06.376Z,102514.44
2018-01-12T23:01:34.730Z,102505.39
2018-01-12T23:04:03.141Z,102509.50
2018-01-12T23:06:31.564Z,102510.33
2018-01-12T23:09:01.227Z,102499.25
2018-01-12T23:11:29.655Z,102501.41
2018-01-12T23:13:58.417Z,102499.42
2018-01-12T23:16:26.771Z,102499.11
2018-01-12T23:18:55.135Z,102492.08
2018-01-12T23:21:23.534Z,102488.23
2018-01-12T23:23:51.927Z,102491.08
2018-01-12T23:26:20.395Z,102495.01
2018-01-12T23:28:48.772Z,102493.14
2018-01-12T23:31:17.143Z,102492.80
2018-01-12T23:33:45.536Z,102499.80
2018-01-12T23:36:13.941Z,102489.82
2018-01-12T23:38:42.699Z,102496.20
2018-01-12T23:41:11.080Z,102499.08
2018-01-12T23:43:39.464Z,102498.11
2018-01-12T23:46:07.841Z,102489.27
2018-01-12T23:48:36.211Z,102487.96
2018-01-12T23:51:04.695Z,102483.53
2018-01-12T23:53:33.051Z,102477.22
2018-01-12T23:56:01.436Z,102496.30
2018-01-12T23:58:29.786Z,102490.00
